Time;durP1;ratioP1;P1;durP2;ratioP2;P2;SDS_P1;SDS_P2;PMS_P1;PMS_P2;Temp;Humidity;BMP_temperature;BMP_pressure;BME280_temperature;BME280_humidity;BME280_pressure;Samples;Min_cycle;Max_cycle;Signal;HPM_P1;HPM_P2
2023/08/14 00:00:51;;;;;;;6.18;2.58;;;;;22.30;98617.00;;;;5054707;28;20063;-60
2023/08/14 00:03:21;;;;;;;3.83;2.47;;;;;22.30;98611.00;;;;5072749;28;20074;-61
2023/08/14 00:05:48;;;;;;;5.32;2.47;;;;;22.40;98616.00;;;;5072317;28;20131;-60
2023/08/14 00:08:14;;;;;;;2.92;2.50;;;;;22.30;98612.00;;;;5073002;28;20048;-61
2023/08/14 00:10:41;;;;;;;4.22;2.40;;;;;22.20;98606.00;;;;5054774;28;20148;-61
2023/08/14 00:13:08;;;;;;;3.90;2.40;;;;;22.30;98613.00;;;;5072315;28;20184;-61
2023/08/14 00:15:34;;;;;;;7.50;2.40;;;;;22.40;98614.00;;;;5072304;28;20485;-61
2023/08/14 00:18:01;;;;;;;4.47;2.38;;;;;22.50;98620.00;;;;5054550;28;20045;-61
2023/08/14 00:20:28;;;;;;;4.03;2.33;;;;;22.50;98620.00;;;;5073278;28;20052;-61
2023/08/14 00:22:54;;;;;;;6.18;2.80;;;;;22.50;98621.00;;;;5072029;28;20051;-61
2023/08/14 00:25:22;;;;;;;7.63;2.40;;;;;22.50;98625.00;;;;5072331;28;20059;-61
2023/08/14 00:27:48;;;;;;;6.75;2.45;;;;;22.40;98608.00;;;;5054393;28;20075;-61
2023/08/14 00:30:15;;;;;;;5.13;2.35;;;;;22.50;98605.00;;;;5053860;28;20386;-61
2023/08/14 00:32:41;;;;;;;3.25;2.35;;;;;22.50;98610.00;;;;5054215;28;20055;-61
2023/08/14 00:35:08;;;;;;;4.25;2.05;;;;;22.50;98612.00;;;;5053689;28;20045;-61
2023/08/14 00:37:43;;;;;;;5.80;2.50;;;;;22.50;98608.00;;;;5054246;28;20047;-61
2023/08/14 00:40:11;;;;;;;2.88;2.28;;;;;22.50;98604.00;;;;5053665;28;20048;-61
2023/08/14 00:42:38;;;;;;;4.90;2.05;;;;;22.60;98597.00;;;;5054339;28;20116;-61
2023/08/14 00:45:06;;;;;;;3.53;2.60;;;;;22.60;98587.00;;;;5054019;28;20037;-61
2023/08/14 00:47:35;;;;;;;7.15;2.30;;;;;22.60;98592.00;;;;5054058;28;20466;-61
2023/08/14 00:50:04;;;;;;;3.72;2.05;;;;;22.60;98594.00;;;;5053631;28;20064;-61
2023/08/14 00:52:34;;;;;;;4.80;2.25;;;;;22.60;98589.00;;;;5054260;28;20127;-61
2023/08/14 00:55:08;;;;;;;4.18;2.40;;;;;22.60;98591.00;;;;5053985;28;20044;-61
2023/08/14 00:57:35;;;;;;;6.28;2.70;;;;;22.50;98589.00;;;;5072006;28;20056;-62
2023/08/14 01:00:05;;;;;;;5.80;2.58;;;;;22.50;98593.00;;;;5071955;28;20044;-61
2023/08/14 01:02:33;;;;;;;3.60;2.30;;;;;22.60;98596.00;;;;5054001;28;20053;-61
2023/08/14 01:05:00;;;;;;;7.10;2.72;;;;;22.50;98589.00;;;;5071913;28;20083;-61
2023/08/14 01:07:29;;;;;;;3.33;2.50;;;;;22.40;98586.00;;;;5056566;28;20539;-60
2023/08/14 01:09:56;;;;;;;3.00;2.50;;;;;22.40;98597.00;;;;5076337;28;20040;-61
2023/08/14 01:12:37;;;;;;;4.72;2.50;;;;;22.40;98601.00;;;;5058026;28;20048;-61
2023/08/14 01:15:13;;;;;;;3.03;2.20;;;;;22.50;98611.00;;;;5057621;28;20139;-61
2023/08/14 01:17:46;;;;;;;3.47;2.45;;;;;22.50;98608.00;;;;5075107;28;20044;-61
2023/08/14 01:20:17;;;;;;;5.63;2.63;;;;;22.40;98600.00;;;;5075675;28;20382;-61
2023/08/14 01:23:25;;;;;;;2.58;2.30;;;;;22.30;98596.00;;;;5057796;28;20136;-61
2023/08/14 01:25:53;;;;;;;2.95;2.20;;;;;22.30;98592.00;;;;5057862;28;20047;-61
2023/08/14 01:28:21;;;;;;;3.85;2.45;;;;;22.40;98582.00;;;;5057595;28;20056;-61
2023/08/14 01:30:47;;;;;;;7.32;2.65;;;;;22.40;98591.00;;;;5075329;28;20120;-61
2023/08/14 01:33:14;;;;;;;3.92;2.13;;;;;22.50;98587.00;;;;5075430;28;20482;-61
2023/08/14 01:35:52;;;;;;;4.22;2.70;;;;;22.50;98569.00;;;;5057537;28;20140;-61
2023/08/14 01:38:28;;;;;;;3.60;2.38;;;;;22.40;98574.00;;;;5076221;28;20511;-61
2023/08/14 01:41:08;;;;;;;5.72;2.65;;;;;22.40;98577.00;;;;5076367;28;20408;-62
2023/08/14 01:43:42;;;;;;;5.03;2.75;;;;;22.50;98565.00;;;;5075861;28;20037;-61
2023/08/14 01:46:11;;;;;;;7.47;2.60;;;;;22.50;98565.00;;;;5075505;28;20124;-61
2023/08/14 01:48:39;;;;;;;5.72;3.60;;;;;22.50;98571.00;;;;5074935;28;20088;-61
2023/08/14 01:51:06;;;;;;;5.05;2.80;;;;;22.60;98566.00;;;;5075071;28;20072;-61
2023/08/14 01:53:37;;;;;;;2.40;2.17;;;;;22.60;98567.00;;;;5075047;28;20062;-61
2023/08/14 01:56:04;;;;;;;5.25;3.13;;;;;22.50;98564.00;;;;5075228;28;20045;-61
2023/08/14 01:58:31;;;;;;;4.18;2.70;;;;;22.30;98555.00;;;;5057116;28;20045;-61
2023/08/14 02:00:57;;;;;;;5.95;2.30;;;;;22.10;98556.00;;;;5056993;28;20143;-61
2023/08/14 02:03:25;;;;;;;3.35;2.53;;;;;22.10;98561.00;;;;5057003;28;20048;-61
2023/08/14 02:05:52;;;;;;;4.13;2.50;;;;;22.00;98555.00;;;;5075194;28;20076;-61
2023/08/14 02:08:19;;;;;;;5.63;2.55;;;;;21.90;98544.00;;;;5057382;28;20255;-61
2023/08/14 02:10:46;;;;;;;6.82;2.75;;;;;21.80;98547.00;;;;5074802;28;20045;-61
2023/08/14 02:13:13;;;;;;;3.97;2.80;;;;;21.70;98537.00;;;;5056950;28;20048;-61
2023/08/14 02:15:40;;;;;;;5.55;2.42;;;;;21.60;98531.00;;;;5074752;28;20047;-60
2023/08/14 02:18:07;;;;;;;6.57;2.58;;;;;21.60;98526.00;;;;5056546;28;20056;-63
2023/08/14 02:20:33;;;;;;;7.28;2.70;;;;;21.60;98526.00;;;;5074231;28;20055;-62
2023/08/14 02:23:00;;;;;;;5.38;2.35;;;;;21.50;98529.00;;;;5056670;28;20106;-61
2023/08/14 02:25:26;;;;;;;4.68;2.63;;;;;21.60;98529.00;;;;5075732;28;20051;-61
2023/08/14 02:27:53;;;;;;;2.63;2.40;;;;;21.70;98531.00;;;;5075381;28;20401;-61
2023/08/14 02:30:19;;;;;;;8.43;2.78;;;;;21.60;98535.00;;;;5075683;28;20048;-61
2023/08/14 02:32:46;;;;;;;5.22;2.90;;;;;21.40;98535.00;;;;5074703;28;20052;-61
2023/08/14 02:35:12;;;;;;;6.40;2.50;;;;;21.40;98535.00;;;;5056305;28;20044;-61
2023/08/14 02:37:39;;;;;;;4.57;2.33;;;;;21.40;98526.00;;;;5074472;28;20056;-61
2023/08/14 02:40:07;;;;;;;4.45;2.85;;;;;21.40;98520.00;;;;5056368;28;20049;-61
2023/08/14 02:42:35;;;;;;;3.85;2.70;;;;;21.30;98516.00;;;;5056291;28;20052;-61
2023/08/14 02:45:03;;;;;;;2.92;2.22;;;;;21.30;98514.00;;;;5074070;28;20028;-61
2023/08/14 02:47:29;;;;;;;4.63;2.30;;;;;21.20;98502.00;;;;5074414;28;20055;-61
2023/08/14 02:49:56;;;;;;;5.10;2.38;;;;;21.20;98514.00;;;;5056003;28;20052;-61
2023/08/14 02:52:22;;;;;;;5.15;2.65;;;;;21.20;98504.00;;;;5056531;28;20067;-62
2023/08/14 02:54:49;;;;;;;4.40;2.95;;;;;21.30;98509.00;;;;5039779;28;20492;-61
2023/08/14 02:57:15;;;;;;;2.97;2.15;;;;;21.30;98502.00;;;;5056021;28;20143;-61
2023/08/14 02:59:42;;;;;;;7.20;2.53;;;;;21.30;98504.00;;;;5073876;28;20131;-61
2023/08/14 03:02:08;;;;;;;4.32;2.42;;;;;21.30;98511.00;;;;5074067;28;20044;-61
2023/08/14 03:04:35;;;;;;;5.55;3.00;;;;;21.30;98499.00;;;;5055936;28;20044;-61
2023/08/14 03:07:02;;;;;;;4.80;2.80;;;;;21.20;98492.00;;;;5074142;28;20044;-61
2023/08/14 03:09:28;;;;;;;6.20;2.60;;;;;21.00;98482.00;;;;5073906;28;20405;-61
2023/08/14 03:11:55;;;;;;;9.75;5.03;;;;;20.90;98497.00;;;;5056248;28;20110;-61
2023/08/14 03:14:21;;;;;;;6.15;2.72;;;;;20.90;98486.00;;;;5056113;28;20477;-61
2023/08/14 03:16:48;;;;;;;8.23;4.70;;;;;20.80;98488.00;;;;5073760;28;20040;-61
2023/08/14 03:19:15;;;;;;;5.10;3.00;;;;;20.80;98486.00;;;;5055864;28;20515;-61
2023/08/14 03:21:42;;;;;;;6.00;2.90;;;;;20.80;98477.00;;;;5056136;28;20045;-61
2023/08/14 03:24:08;;;;;;;4.35;3.08;;;;;20.80;98479.00;;;;5074065;28;20085;-61
2023/08/14 03:26:35;;;;;;;6.78;3.90;;;;;20.90;98482.00;;;;5073506;28;20123;-61
2023/08/14 03:29:02;;;;;;;5.13;3.10;;;;;20.90;98488.00;;;;5038578;28;20090;-61
2023/08/14 03:31:31;;;;;;;5.20;3.03;;;;;20.90;98485.00;;;;5055266;28;20056;-61
2023/08/14 03:33:59;;;;;;;4.00;2.58;;;;;20.90;98484.00;;;;5056218;28;20098;-62
2023/08/14 03:36:26;;;;;;;4.20;2.47;;;;;21.00;98486.00;;;;5074281;28;20036;-62
2023/08/14 03:38:56;;;;;;;6.03;2.42;;;;;21.10;98486.00;;;;5056051;28;20416;-63
2023/08/14 03:41:24;;;;;;;6.10;3.10;;;;;21.10;98483.00;;;;5055710;28;20689;-61
2023/08/14 03:43:53;;;;;;;3.92;2.80;;;;;21.10;98475.00;;;;5056073;28;20048;-62
2023/08/14 03:46:19;;;;;;;6.60;3.08;;;;;21.20;98480.00;;;;5074054;28;20040;-62
2023/08/14 03:48:46;;;;;;;4.18;2.45;;;;;21.20;98479.00;;;;5056108;28;20143;-62
2023/08/14 03:51:12;;;;;;;6.85;3.03;;;;;21.20;98471.00;;;;5039415;28;20075;-62
2023/08/14 03:53:39;;;;;;;4.43;2.88;;;;;21.00;98476.00;;;;5073593;28;20160;-62
2023/08/14 03:56:05;;;;;;;4.00;2.78;;;;;20.90;98482.00;;;;5056348;28;20063;-62
2023/08/14 03:58:32;;;;;;;7.53;2.55;;;;;20.90;98483.00;;;;5074196;28;20067;-62
2023/08/14 04:00:59;;;;;;;4.15;2.20;;;;;21.00;98489.00;;;;5073893;28;20464;-62
2023/08/14 04:03:25;;;;;;;7.35;3.30;;;;;21.10;98486.00;;;;5056174;28;20051;-62
2023/08/14 04:05:57;;;;;;;5.78;3.42;;;;;21.00;98486.00;;;;5074699;28;20037;-62
2023/08/14 04:08:24;;;;;;;3.13;2.60;;;;;21.00;98496.00;;;;5074247;28;20481;-62
2023/08/14 04:10:57;;;;;;;3.72;2.63;;;;;21.00;98493.00;;;;5056804;28;20516;-62
2023/08/14 04:13:24;;;;;;;3.10;2.35;;;;;21.00;98502.00;;;;5056327;28;20509;-62
2023/08/14 04:15:59;;;;;;;2.97;2.40;;;;;21.10;98497.00;;;;5076352;28;20044;-61
2023/08/14 04:18:36;;;;;;;3.15;2.58;;;;;21.20;98505.00;;;;5074737;28;20098;-60
2023/08/14 04:21:03;;;;;;;4.63;2.92;;;;;21.20;98497.00;;;;5057063;28;20048;-61
2023/08/14 04:23:30;;;;;;;4.80;2.90;;;;;21.20;98499.00;;;;5075306;28;20044;-60
2023/08/14 04:25:57;;;;;;;6.00;2.63;;;;;21.20;98496.00;;;;5057345;28;20044;-61
2023/08/14 04:28:23;;;;;;;4.68;2.83;;;;;21.10;98499.00;;;;5056483;28;20139;-60
2023/08/14 04:30:50;;;;;;;11.82;7.28;;;;;21.10;98497.00;;;;5039647;28;20064;-61
2023/08/14 04:33:17;;;;;;;7.88;5.13;;;;;21.00;98494.00;;;;5074385;28;20044;-61
2023/08/14 04:35:45;;;;;;;6.68;4.68;;;;;20.90;98488.00;;;;5041248;28;20045;-61
2023/08/14 04:38:11;;;;;;;10.60;4.40;;;;;20.70;98479.00;;;;5057877;28;20048;-60
2023/08/14 04:40:42;;;;;;;5.75;3.75;;;;;20.70;98478.00;;;;5057776;28;20068;-61
2023/08/14 04:43:08;;;;;;;6.70;3.60;;;;;20.70;98477.00;;;;5075385;28;20040;-61
2023/08/14 04:45:35;;;;;;;7.47;4.07;;;;;20.70;98479.00;;;;5057792;28;20131;-61
2023/08/14 04:48:02;;;;;;;4.90;3.60;;;;;20.80;98477.00;;;;5058023;28;20052;-61
2023/08/14 04:50:29;;;;;;;7.45;3.45;;;;;20.80;98476.00;;;;5059058;28;20075;-60
2023/08/14 04:52:55;;;;;;;7.25;5.03;;;;;20.90;98473.00;;;;5076511;28;20037;-60
2023/08/14 04:55:23;;;;;;;11.48;6.22;;;;;21.00;98479.00;;;;5058607;28;20048;-61
2023/08/14 04:57:51;;;;;;;6.65;3.70;;;;;21.10;98481.00;;;;5057780;28;20052;-61
2023/08/14 05:00:18;;;;;;;7.55;4.28;;;;;21.20;98476.00;;;;5041429;28;20044;-61
2023/08/14 05:02:45;;;;;;;6.15;3.83;;;;;21.20;98473.00;;;;5058843;28;20048;-60
2023/08/14 05:05:12;;;;;;;5.25;3.50;;;;;21.20;98469.00;;;;5058748;28;20045;-61
2023/08/14 05:07:38;;;;;;;8.23;4.50;;;;;21.20;98464.00;;;;5076636;28;20051;-60
2023/08/14 05:10:05;;;;;;;6.20;4.35;;;;;21.20;98459.00;;;;5058019;28;20045;-60
2023/08/14 05:12:32;;;;;;;3.78;3.05;;;;;21.10;98461.00;;;;5058131;28;20049;-60
2023/08/14 05:14:59;;;;;;;6.88;3.47;;;;;21.20;98460.00;;;;5076110;28;20428;-61
2023/08/14 05:17:26;;;;;;;7.60;3.30;;;;;21.20;98468.00;;;;5058057;28;20060;-60
2023/08/14 05:19:52;;;;;;;4.82;3.50;;;;;21.30;98468.00;;;;5076609;28;20068;-60
2023/08/14 05:22:19;;;;;;;4.82;2.78;;;;;21.30;98463.00;;;;5059151;28;20515;-60
2023/08/14 05:24:46;;;;;;;7.72;2.97;;;;;21.30;98463.00;;;;5077015;28;20059;-60
2023/08/14 05:27:13;;;;;;;6.18;2.97;;;;;21.30;98465.00;;;;5076755;28;20053;-60
2023/08/14 05:29:39;;;;;;;5.03;3.30;;;;;21.40;98467.00;;;;5058653;28;20071;-60
2023/08/14 05:32:06;;;;;;;9.98;3.53;;;;;21.40;98473.00;;;;5076213;28;20055;-60
2023/08/14 05:34:32;;;;;;;5.47;2.78;;;;;21.40;98466.00;;;;5076367;28;20043;-60
2023/08/14 05:36:59;;;;;;;4.90;3.15;;;;;21.50;98477.00;;;;5076850;28;20071;-60
2023/08/14 05:39:26;;;;;;;9.95;4.38;;;;;21.60;98478.00;;;;5076667;28;20044;-60
2023/08/14 05:41:53;;;;;;;6.70;3.35;;;;;21.70;98480.00;;;;5076628;28;20044;-61
2023/08/14 05:44:20;;;;;;;4.20;3.22;;;;;21.70;98474.00;;;;5077451;28;20055;-60
2023/08/14 05:46:46;;;;;;;5.22;3.60;;;;;21.70;98476.00;;;;5078862;28;20036;-60
2023/08/14 05:49:15;;;;;;;5.80;3.30;;;;;21.70;98472.00;;;;5078177;28;20044;-60
2023/08/14 05:51:43;;;;;;;4.28;2.92;;;;;21.70;98469.00;;;;5060595;28;20078;-60
2023/08/14 05:54:09;;;;;;;6.13;2.95;;;;;21.80;98473.00;;;;5063121;28;20489;-60
2023/08/14 05:56:36;;;;;;;4.90;3.28;;;;;21.80;98477.00;;;;5080551;28;20048;-61
2023/08/14 05:59:02;;;;;;;3.60;2.70;;;;;21.90;98477.00;;;;5061500;28;20147;-61
2023/08/14 06:01:29;;;;;;;7.47;3.55;;;;;22.00;98486.00;;;;5076007;28;20044;-60
2023/08/14 06:03:56;;;;;;;11.75;3.25;;;;;22.00;98474.00;;;;5076132;28;20493;-60
2023/08/14 06:06:22;;;;;;;3.30;2.85;;;;;22.10;98477.00;;;;5076504;28;20045;-60
2023/08/14 06:08:49;;;;;;;6.03;3.05;;;;;22.20;98472.00;;;;5076629;28;20051;-60
2023/08/14 06:11:16;;;;;;;4.40;2.90;;;;;22.20;98472.00;;;;5078781;28;20049;-60
2023/08/14 06:13:42;;;;;;;6.07;3.10;;;;;22.30;98468.00;;;;5079532;28;20100;-60
2023/08/14 06:16:10;;;;;;;3.72;2.80;;;;;22.40;98455.00;;;;5060777;28;20036;-60
2023/08/14 06:18:37;;;;;;;4.65;2.80;;;;;22.50;98455.00;;;;5078304;28;20056;-60
2023/08/14 06:21:03;;;;;;;3.78;2.58;;;;;22.60;98444.00;;;;5077858;28;20055;-60
2023/08/14 06:23:30;;;;;;;4.57;2.83;;;;;22.70;98446.00;;;;5059876;28;20080;-60
2023/08/14 06:25:57;;;;;;;7.03;2.92;;;;;22.70;98443.00;;;;5060169;28;20036;-60
2023/08/14 06:28:24;;;;;;;7.53;2.83;;;;;22.80;98442.00;;;;5078243;28;20101;-60
2023/08/14 06:30:51;;;;;;;4.78;2.60;;;;;22.90;98438.00;;;;5077826;28;20044;-60
2023/08/14 06:33:17;;;;;;;6.28;3.15;;;;;23.00;98435.00;;;;5081474;28;20040;-60
2023/08/14 06:35:44;;;;;;;5.70;2.35;;;;;23.10;98430.00;;;;5077372;28;20112;-61
2023/08/14 06:38:10;;;;;;;4.97;2.47;;;;;23.20;98438.00;;;;5077856;28;20044;-61
2023/08/14 06:40:38;;;;;;;6.03;2.08;;;;;23.30;98439.00;;;;5077590;28;20139;-60
2023/08/14 06:43:06;;;;;;;7.47;2.83;;;;;23.50;98445.00;;;;5077019;28;20041;-61
2023/08/14 06:45:33;;;;;;;5.60;2.70;;;;;23.70;98452.00;;;;5076048;28;20052;-61
2023/08/14 06:47:59;;;;;;;6.18;2.53;;;;;23.80;98462.00;;;;5058025;28;20412;-61
2023/08/14 06:50:26;;;;;;;3.67;2.45;;;;;23.90;98460.00;;;;5060349;28;20055;-61
2023/08/14 06:52:53;;;;;;;3.35;2.30;;;;;23.90;98453.00;;;;5079244;28;20048;-61
2023/08/14 06:55:20;;;;;;;4.85;2.97;;;;;23.90;98457.00;;;;5077080;28;20485;-61
2023/08/14 06:57:47;;;;;;;4.80;2.50;;;;;24.10;98459.00;;;;5056157;28;20055;-62
2023/08/14 07:00:14;;;;;;;4.03;2.30;;;;;24.20;98451.00;;;;5073792;28;20040;-61
2023/08/14 07:02:40;;;;;;;4.28;2.72;;;;;24.20;98452.00;;;;5073784;28;20049;-61
2023/08/14 07:05:09;;;;;;;6.03;3.40;;;;;24.40;98453.00;;;;5072447;28;20550;-61
2023/08/14 07:07:37;;;;;;;4.95;3.63;;;;;24.70;98446.00;;;;5055817;28;20493;-61
2023/08/14 07:10:04;;;;;;;6.18;2.88;;;;;24.80;98451.00;;;;5073549;28;20044;-61
2023/08/14 07:12:31;;;;;;;4.43;2.65;;;;;24.90;98454.00;;;;5056186;28;20052;-61
2023/08/14 07:14:58;;;;;;;3.72;2.42;;;;;25.00;98447.00;;;;5073726;28;20049;-61
2023/08/14 07:17:24;;;;;;;4.53;2.28;;;;;25.20;98436.00;;;;5073474;28;20045;-61
2023/08/14 07:19:51;;;;;;;5.90;2.65;;;;;25.10;98434.00;;;;5072364;28;20143;-61
2023/08/14 07:22:17;;;;;;;5.55;3.15;;;;;25.00;98440.00;;;;5073540;28;20044;-61
2023/08/14 07:24:45;;;;;;;6.10;3.15;;;;;25.10;98443.00;;;;5073387;28;20048;-61
2023/08/14 07:27:11;;;;;;;6.18;3.20;;;;;25.00;98441.00;;;;5073418;28;20041;-61
2023/08/14 07:29:38;;;;;;;7.07;3.60;;;;;25.10;98436.00;;;;5073126;28;20044;-61
2023/08/14 07:32:04;;;;;;;4.93;2.80;;;;;25.10;98430.00;;;;5073522;28;20109;-61
2023/08/14 07:34:31;;;;;;;5.40;2.70;;;;;25.20;98434.00;;;;5072864;28;20075;-61
2023/08/14 07:36:58;;;;;;;5.45;3.05;;;;;25.30;98443.00;;;;5073279;28;20119;-61
2023/08/14 07:39:24;;;;;;;6.32;2.75;;;;;25.30;98452.00;;;;5072881;28;20055;-60
2023/08/14 07:41:51;;;;;;;3.25;2.60;;;;;25.30;98449.00;;;;5073221;28;20505;-62
2023/08/14 07:44:17;;;;;;;8.02;3.33;;;;;25.30;98459.00;;;;5073074;28;20056;-62
2023/08/14 07:46:44;;;;;;;4.90;3.88;;;;;25.30;98452.00;;;;5055188;28;20047;-64
2023/08/14 07:49:10;;;;;;;6.22;2.95;;;;;25.30;98467.00;;;;5054781;28;20054;-61
2023/08/14 07:51:37;;;;;;;4.13;3.35;;;;;25.40;98479.00;;;;5072914;28;20517;-63
2023/08/14 07:54:04;;;;;;;6.50;2.67;;;;;25.50;98477.00;;;;5072762;28;20055;-62
2023/08/14 07:56:30;;;;;;;4.32;3.05;;;;;25.50;98481.00;;;;5072673;28;20041;-62
2023/08/14 07:58:57;;;;;;;2.83;2.63;;;;;25.50;98484.00;;;;5054918;28;20417;-62
2023/08/14 08:01:23;;;;;;;2.70;2.40;;;;;25.60;98481.00;;;;5072342;28;20056;-63
2023/08/14 08:03:50;;;;;;;6.97;3.03;;;;;25.50;98497.00;;;;5072688;28;20040;-63
2023/08/14 08:06:16;;;;;;;4.35;2.88;;;;;25.60;98497.00;;;;5072672;28;20036;-63
2023/08/14 08:08:43;;;;;;;3.85;3.10;;;;;25.70;98506.00;;;;5072725;28;20394;-62
2023/08/14 08:11:13;;;;;;;6.65;3.13;;;;;25.90;98500.00;;;;5072471;28;20052;-62
2023/08/14 08:13:40;;;;;;;4.82;3.20;;;;;25.80;98492.00;;;;5072383;28;20481;-62
2023/08/14 08:16:08;;;;;;;5.65;2.88;;;;;25.80;98488.00;;;;5071803;28;20675;-63
2023/08/14 08:18:35;;;;;;;3.60;2.58;;;;;25.80;98493.00;;;;5072169;28;20079;-62
2023/08/14 08:21:02;;;;;;;2.53;2.05;;;;;25.80;98502.00;;;;5072361;28;20053;-63
2023/08/14 08:23:28;;;;;;;4.32;2.63;;;;;25.70;98519.00;;;;5072228;28;20051;-62
2023/08/14 08:25:55;;;;;;;3.70;2.63;;;;;26.00;98520.00;;;;5072412;28;20058;-63
2023/08/14 08:28:22;;;;;;;3.67;2.70;;;;;26.20;98517.00;;;;5054327;28;20052;-62
2023/08/14 08:30:48;;;;;;;4.60;2.45;;;;;26.30;98508.00;;;;5072151;28;20044;-62
2023/08/14 08:33:15;;;;;;;8.70;2.67;;;;;26.50;98524.00;;;;5054507;28;20037;-62
2023/08/14 08:35:52;;;;;;;3.55;2.67;;;;;26.80;98522.00;;;;5072549;28;20047;-62
2023/08/14 08:38:19;;;;;;;5.97;3.08;;;;;26.80;98511.00;;;;5072569;28;20040;-63
2023/08/14 08:40:48;;;;;;;5.95;3.25;;;;;26.80;98517.00;;;;5072131;28;20045;-63
2023/08/14 08:43:16;;;;;;;3.65;2.40;;;;;26.90;98523.00;;;;5072363;28;20518;-60
2023/08/14 08:45:52;;;;;;;3.00;2.60;;;;;27.00;98523.00;;;;5072122;28;20044;-62
2023/08/14 08:48:22;;;;;;;5.55;3.63;;;;;27.00;98520.00;;;;5071836;28;20048;-60
2023/08/14 08:50:50;;;;;;;5.20;2.88;;;;;27.00;98522.00;;;;5071958;28;20041;-60
2023/08/14 08:53:20;;;;;;;13.13;9.00;;;;;26.90;98522.00;;;;5053967;28;20139;-60
2023/08/14 08:55:47;;;;;;;10.85;5.72;;;;;26.90;98520.00;;;;5071884;28;20049;-60
2023/08/14 08:58:16;;;;;;;7.88;4.63;;;;;26.90;98521.00;;;;5053742;28;20049;-62
2023/08/14 09:00:43;;;;;;;9.95;5.60;;;;;27.00;98526.00;;;;5071851;28;20485;-62
2023/08/14 09:03:12;;;;;;;4.55;3.40;;;;;27.10;98524.00;;;;5054081;28;20056;-61
2023/08/14 09:05:41;;;;;;;15.32;7.60;;;;;27.20;98523.00;;;;5071895;28;20043;-62
2023/08/14 09:08:08;;;;;;;4.95;3.33;;;;;27.10;98522.00;;;;5071747;28;20068;-62
2023/08/14 09:10:35;;;;;;;7.68;4.35;;;;;27.00;98522.00;;;;5071583;28;20127;-60
2023/08/14 09:13:02;;;;;;;7.32;3.50;;;;;27.00;98528.00;;;;5053782;28;20098;-61
2023/08/14 09:15:35;;;;;;;5.93;3.13;;;;;26.90;98527.00;;;;5071661;28;20119;-60
2023/08/14 09:18:03;;;;;;;6.05;3.10;;;;;26.80;98524.00;;;;5071657;28;20072;-62
2023/08/14 09:20:30;;;;;;;5.55;3.33;;;;;26.90;98517.00;;;;5071334;28;20098;-62
2023/08/14 09:22:57;;;;;;;5.82;2.95;;;;;26.90;98519.00;;;;5053981;28;20525;-62
2023/08/14 09:25:25;;;;;;;3.70;3.10;;;;;27.00;98515.00;;;;5054011;28;20123;-60
2023/08/14 09:27:57;;;;;;;4.80;2.70;;;;;27.10;98507.00;;;;5055381;28;20433;-60
2023/08/14 09:30:25;;;;;;;4.57;2.40;;;;;27.30;98506.00;;;;5075979;28;20037;-62
2023/08/14 09:32:53;;;;;;;3.28;2.35;;;;;27.40;98500.00;;;;5075939;28;20531;-62
2023/08/14 09:35:20;;;;;;;3.67;3.10;;;;;27.60;98495.00;;;;5075261;28;20044;-60
2023/08/14 09:37:48;;;;;;;4.07;3.38;;;;;27.80;98497.00;;;;5057640;28;20143;-60
2023/08/14 09:40:16;;;;;;;4.15;2.33;;;;;28.00;98494.00;;;;5075066;28;20059;-60
2023/08/14 09:42:47;;;;;;;6.70;4.60;;;;;28.10;98502.00;;;;5057536;28;20095;-61
2023/08/14 09:45:16;;;;;;;6.78;3.42;;;;;28.30;98499.00;;;;5057331;28;20048;-60
2023/08/14 09:47:44;;;;;;;13.77;7.10;;;;;28.50;98494.00;;;;5057006;28;20497;-62
2023/08/14 09:50:19;;;;;;;7.72;4.32;;;;;28.70;98496.00;;;;5074765;28;20040;-60
2023/08/14 09:52:46;;;;;;;6.93;3.72;;;;;28.80;98495.00;;;;5075116;28;20033;-61
2023/08/14 09:55:14;;;;;;;9.48;5.28;;;;;28.90;98497.00;;;;5075018;28;20094;-60
2023/08/14 09:57:41;;;;;;;3.08;2.75;;;;;29.00;98501.00;;;;5056991;28;20087;-60
2023/08/14 10:00:10;;;;;;;5.05;3.58;;;;;29.00;98499.00;;;;5074871;28;20482;-60
2023/08/14 10:02:38;;;;;;;4.15;2.78;;;;;29.10;98506.00;;;;5057244;28;20080;-60
2023/08/14 10:05:09;;;;;;;3.13;2.50;;;;;29.20;98511.00;;;;5056562;28;20122;-60
2023/08/14 10:07:36;;;;;;;4.03;2.33;;;;;29.30;98509.00;;;;5057055;28;20051;-60
2023/08/14 10:10:06;;;;;;;5.13;2.75;;;;;29.30;98508.00;;;;5074486;28;20040;-60
2023/08/14 10:12:39;;;;;;;4.78;3.20;;;;;29.40;98516.00;;;;5057001;28;20058;-61
2023/08/14 10:15:14;;;;;;;3.63;2.80;;;;;29.50;98527.00;;;;5074634;28;20547;-61
2023/08/14 10:17:51;;;;;;;7.70;3.65;;;;;29.50;98534.00;;;;5074587;28;20214;-61
2023/08/14 10:20:21;;;;;;;8.15;4.70;;;;;29.40;98536.00;;;;5074793;28;20048;-62
2023/08/14 10:22:52;;;;;;;14.30;7.80;;;;;29.30;98540.00;;;;5074749;28;20047;-62
2023/08/14 10:25:20;;;;;;;4.93;3.40;;;;;29.30;98550.00;;;;5074552;28;20079;-62
2023/08/14 10:27:47;;;;;;;6.13;3.42;;;;;29.40;98547.00;;;;5079936;28;20044;-62
2023/08/14 10:30:13;;;;;;;5.25;2.45;;;;;29.50;98550.00;;;;5082101;28;20048;-62
2023/08/14 10:32:40;;;;;;;4.25;3.05;;;;;29.40;98549.00;;;;5082301;28;20044;-62
2023/08/14 10:35:08;;;;;;;5.00;2.97;;;;;29.40;98551.00;;;;5066290;28;20075;-63
2023/08/14 10:37:42;;;;;;;2.95;2.20;;;;;29.40;98547.00;;;;5068382;28;20044;-63
2023/08/14 10:40:21;;;;;;;2.97;2.65;;;;;29.40;98545.00;;;;5084712;28;20109;-63
2023/08/14 10:42:52;;;;;;;7.32;3.65;;;;;29.40;98550.00;;;;5088167;28;20040;-63
2023/08/14 10:45:22;;;;;;;4.35;2.67;;;;;29.30;98558.00;;;;5058359;28;20190;-63
2023/08/14 10:47:51;;;;;;;4.05;3.00;;;;;29.20;98558.00;;;;5093026;28;20036;-63
2023/08/14 10:50:19;;;;;;;5.30;3.03;;;;;29.00;98573.00;;;;5073361;28;20052;-62
2023/08/14 10:52:48;;;;;;;3.83;2.92;;;;;28.80;98580.00;;;;5072604;28;20045;-63
2023/08/14 10:55:25;;;;;;;3.05;2.75;;;;;28.50;98595.00;;;;5073003;28;20048;-64
2023/08/14 10:57:53;;;;;;;4.63;3.38;;;;;28.10;98596.00;;;;5059908;28;20093;-63
2023/08/14 11:00:23;;;;;;;3.47;3.10;;;;;27.90;98574.00;;;;5075436;28;20066;-63
2023/08/14 11:03:06;;;;;;;4.50;3.45;;;;;27.70;98583.00;;;;5074472;28;20087;-63
2023/08/14 11:05:40;;;;;;;6.22;2.92;;;;;27.50;98581.00;;;;5074088;28;20105;-63
2023/08/14 11:08:08;;;;;;;5.13;2.92;;;;;27.40;98593.00;;;;5058397;28;20119;-64
2023/08/14 11:10:35;;;;;;;5.57;3.13;;;;;27.30;98586.00;;;;5077545;28;20048;-64
2023/08/14 11:13:04;;;;;;;8.93;3.65;;;;;27.30;98587.00;;;;5075579;28;20063;-63
2023/08/14 11:15:35;;;;;;;5.57;3.87;;;;;27.50;98579.00;;;;5075750;28;20497;-63
2023/08/14 11:18:10;;;;;;;6.38;4.05;;;;;27.80;98577.00;;;;5075879;28;20036;-63
2023/08/14 11:20:38;;;;;;;8.38;3.97;;;;;28.00;98568.00;;;;5075664;28;20052;-63
2023/08/14 11:23:06;;;;;;;5.88;3.20;;;;;28.20;98572.00;;;;5075055;28;20132;-65
2023/08/14 11:25:33;;;;;;;5.88;3.13;;;;;28.40;98561.00;;;;5054906;28;20072;-64
2023/08/14 11:28:00;;;;;;;5.45;3.33;;;;;28.60;98554.00;;;;5072852;28;20041;-64
2023/08/14 11:30:32;;;;;;;6.18;3.22;;;;;28.70;98545.00;;;;5072822;28;20043;-64
2023/08/14 11:32:58;;;;;;;5.15;2.63;;;;;28.90;98540.00;;;;5073000;28;20075;-64
2023/08/14 11:35:26;;;;;;;4.07;3.35;;;;;29.10;98546.00;;;;5056537;28;20045;-64
2023/08/14 11:37:53;;;;;;;3.63;2.83;;;;;29.20;98548.00;;;;5057163;28;20041;-64
2023/08/14 11:40:19;;;;;;;16.25;7.70;;;;;29.10;98551.00;;;;5054875;28;20497;-64
2023/08/14 11:42:46;;;;;;;7.22;3.80;;;;;29.20;98538.00;;;;5073254;28;20052;-65
2023/08/14 11:45:12;;;;;;;4.97;3.72;;;;;29.20;98535.00;;;;5073292;28;20481;-64
2023/08/14 11:47:47;;;;;;;4.95;3.17;;;;;29.00;98539.00;;;;5055061;28;20148;-64
2023/08/14 11:50:15;;;;;;;11.68;4.05;;;;;29.00;98531.00;;;;5071891;28;20048;-64
2023/08/14 11:52:42;;;;;;;3.92;3.35;;;;;29.00;98536.00;;;;5072678;28;20045;-64
2023/08/14 11:55:09;;;;;;;9.80;4.25;;;;;28.90;98529.00;;;;5072913;28;20127;-64
2023/08/14 11:57:37;;;;;;;5.18;3.67;;;;;28.90;98540.00;;;;5072657;28;20055;-64
2023/08/14 12:00:10;;;;;;;5.18;3.30;;;;;28.80;98553.00;;;;5072377;28;20498;-64
2023/08/14 12:02:40;;;;;;;4.15;2.67;;;;;28.60;98544.00;;;;5054969;28;20118;-64
2023/08/14 12:05:08;;;;;;;4.00;2.75;;;;;28.50;98553.00;;;;5072289;28;20521;-64
2023/08/14 12:07:35;;;;;;;5.72;2.63;;;;;28.20;98542.00;;;;5054719;28;20064;-64
2023/08/14 12:10:08;;;;;;;6.60;3.28;;;;;28.10;98542.00;;;;5072217;28;20044;-64
2023/08/14 12:12:35;;;;;;;4.07;2.60;;;;;28.10;98540.00;;;;5054082;28;20408;-64
2023/08/14 12:15:05;;;;;;;4.07;3.15;;;;;28.10;98531.00;;;;5071717;28;20102;-63
2023/08/14 12:17:33;;;;;;;4.68;3.30;;;;;28.00;98531.00;;;;5071809;28;20044;-64
2023/08/14 12:20:08;;;;;;;4.32;2.85;;;;;28.10;98536.00;;;;5054560;28;20460;-64
2023/08/14 12:22:35;;;;;;;3.80;3.30;;;;;28.10;98537.00;;;;5072406;28;20054;-64